Accueil
METAR-TAF:

METAR-TAF

Aéroports :

Uden, Pays-Bas

Base aérienne Volkel-Uden

latitude: 51-39N, longitude: 005-42E, altitude: 22 m

Observation

Le bulletin a été fait il y a 29 minutes, à 22:25 UTC
Vent 3 kt de nord-est
Température 12°C
Humidité 76%
Pression 1018 hPa
Visibilité 10 km ou plus
Ciel couvert à une hauteur de 34000 ft

METAR: EHVK 212225Z AUTO 04003KT 9999 OVC340 12/08 Q1018 BLU

Heure: 00:54 (22:54 UTC)

Prévision

Le bulletin a été fait il y a 34 heures et 48 minutes, à 12:06 UTC
Prévision valable du 20 à 13 UTC au 21 à 01 UTC
Vent 8 kt de ouest
Visibilité 10 km ou plus
pas de nuages en-dessous de 1500 mètres et pas de cumulonimbus.
Evoluant progressivement
du 20 à 23 UTC au 21 à 01 UTC
Vent 5 kt de nord
Visibilité: 4500 m
brume

TAF: EHVK 201206Z 2013/2101 27008KT CAVOK BECMG 2023/2101 36005KT 4500 BR

Observations et prévisions météorologiques de plus de 4000 aéroports (messages METAR et TAF).

Les stations disponibles sont représentées par des disques jaunes et rouges sur la carte.

Passer la souris dessus pour voir le nom de la station.

Cliquer dessus pour voir les observations et prévisions météorologiques.

Pour changer de carte: cliquez sur les boutons verts avec une croix noire pour zoomer, sur le bouton vert avec un tiret pour effectuer un zoom arrière, ou sur les flèches vertes pour les cartes adjacentes.


METAR-TAF: